sensor_id;sensor_type;location;lat;lon;timestamp;pressure;altitude;pressure_sealevel;temperature;humidity
11049;BME280;5577;42.706;23.160;2022-07-01T00:01:02;94150.88;;;19.51;100.00
11049;BME280;5577;42.706;23.160;2022-07-01T00:03:46;94152.13;;;19.43;100.00
11049;BME280;5577;42.706;23.160;2022-07-01T00:06:33;94156.28;;;19.47;100.00
11049;BME280;5577;42.706;23.160;2022-07-01T00:09:18;94160.53;;;19.45;100.00
11049;BME280;5577;42.706;23.160;2022-07-01T00:12:02;94163.56;;;19.50;100.00
11049;BME280;5577;42.706;23.160;2022-07-01T00:14:46;94163.19;;;19.48;100.00
11049;BME280;5577;42.706;23.160;2022-07-01T00:17:30;94160.50;;;19.48;100.00
11049;BME280;5577;42.706;23.160;2022-07-01T00:20:14;94160.56;;;19.41;100.00
11049;BME280;5577;42.706;23.160;2022-07-01T00:22:58;94168.94;;;19.50;100.00
11049;BME280;5577;42.706;23.160;2022-07-01T00:25:43;94137.38;;;19.21;100.00
11049;BME280;5577;42.706;23.160;2022-07-01T00:28:27;94181.25;;;19.44;100.00
11049;BME280;5577;42.706;23.160;2022-07-01T00:31:11;94187.06;;;19.39;100.00
11049;BME280;5577;42.706;23.160;2022-07-01T00:33:55;94177.84;;;19.40;100.00
11049;BME280;5577;42.706;23.160;2022-07-01T00:36:39;94178.97;;;19.43;100.00
11049;BME280;5577;42.706;23.160;2022-07-01T00:39:23;94173.69;;;19.36;100.00
11049;BME280;5577;42.706;23.160;2022-07-01T00:42:07;94187.50;;;19.34;100.00
11049;BME280;5577;42.706;23.160;2022-07-01T00:44:52;94189.06;;;19.32;100.00
11049;BME280;5577;42.706;23.160;2022-07-01T00:47:36;94173.78;;;19.25;100.00
11049;BME280;5577;42.706;23.160;2022-07-01T00:50:20;94170.34;;;19.25;100.00
11049;BME280;5577;42.706;23.160;2022-07-01T00:53:05;94175.31;;;19.26;100.00
11049;BME280;5577;42.706;23.160;2022-07-01T00:55:49;94183.38;;;19.26;100.00
11049;BME280;5577;42.706;23.160;2022-07-01T00:58:33;94183.38;;;19.26;100.00
11049;BME280;5577;42.706;23.160;2022-07-01T01:01:17;94184.97;;;19.17;100.00
11049;BME280;5577;42.706;23.160;2022-07-01T01:04:02;94185.38;;;19.12;100.00
11049;BME280;5577;42.706;23.160;2022-07-01T01:06:46;94190.81;;;19.05;100.00
11049;BME280;5577;42.706;23.160;2022-07-01T01:09:30;94187.41;;;19.01;100.00
11049;BME280;5577;42.706;23.160;2022-07-01T01:12:15;94180.94;;;18.95;100.00
11049;BME280;5577;42.706;23.160;2022-07-01T01:14:59;94186.75;;;18.90;100.00
11049;BME280;5577;42.706;23.160;2022-07-01T01:17:43;94184.84;;;18.87;100.00
11049;BME280;5577;42.706;23.160;2022-07-01T01:20:32;94179.53;;;18.80;100.00
11049;BME280;5577;42.706;23.160;2022-07-01T01:23:17;94178.75;;;18.83;100.00
11049;BME280;5577;42.706;23.160;2022-07-01T01:26:01;94176.06;;;18.83;100.00
11049;BME280;5577;42.706;23.160;2022-07-01T01:28:47;94186.47;;;18.77;100.00
11049;BME280;5577;42.706;23.160;2022-07-01T01:31:31;94180.78;;;18.68;100.00
11049;BME280;5577;42.706;23.160;2022-07-01T01:34:19;94173.88;;;18.71;100.00
11049;BME280;5577;42.706;23.160;2022-07-01T01:37:05;94177.41;;;18.57;100.00
11049;BME280;5577;42.706;23.160;2022-07-01T01:39:49;94180.88;;;18.54;100.00
11049;BME280;5577;42.706;23.160;2022-07-01T01:42:33;94187.41;;;18.53;100.00
11049;BME280;5577;42.706;23.160;2022-07-01T01:45:17;94187.78;;;18.55;100.00
11049;BME280;5577;42.706;23.160;2022-07-01T01:48:01;94190.44;;;18.59;100.00
11049;BME280;5577;42.706;23.160;2022-07-01T01:50:45;94184.66;;;18.60;100.00
11049;BME280;5577;42.706;23.160;2022-07-01T01:53:29;94184.28;;;18.62;100.00
11049;BME280;5577;42.706;23.160;2022-07-01T01:56:13;94190.03;;;18.60;100.00
11049;BME280;5577;42.706;23.160;2022-07-01T01:58:58;94194.28;;;18.54;100.00
11049;BME280;5577;42.706;23.160;2022-07-01T02:01:43;94197.34;;;18.53;100.00
11049;BME280;5577;42.706;23.160;2022-07-01T02:04:27;94191.25;;;18.52;100.00
11049;BME280;5577;42.706;23.160;2022-07-01T02:07:11;94197.09;;;18.37;100.00
11049;BME280;5577;42.706;23.160;2022-07-01T02:09:55;94199.78;;;18.37;100.00
11049;BME280;5577;42.706;23.160;2022-07-01T02:12:39;94194.41;;;18.33;100.00
11049;BME280;5577;42.706;23.160;2022-07-01T02:15:23;94195.16;;;18.30;100.00
11049;BME280;5577;42.706;23.160;2022-07-01T02:18:07;94194.44;;;18.26;100.00
11049;BME280;5577;42.706;23.160;2022-07-01T02:20:51;94199.06;;;18.26;100.00
11049;BME280;5577;42.706;23.160;2022-07-01T02:23:35;94199.41;;;18.28;100.00
11049;BME280;5577;42.706;23.160;2022-07-01T02:26:19;94210.97;;;18.14;100.00
11049;BME280;5577;42.706;23.160;2022-07-01T02:29:04;94213.63;;;18.18;100.00
11049;BME280;5577;42.706;23.160;2022-07-01T02:31:47;94213.63;;;18.18;100.00
11049;BME280;5577;42.706;23.160;2022-07-01T02:34:31;94207.16;;;18.12;100.00
11049;BME280;5577;42.706;23.160;2022-07-01T02:37:15;94216.34;;;18.14;100.00
11049;BME280;5577;42.706;23.160;2022-07-01T02:40:00;94224.06;;;18.02;100.00
11049;BME280;5577;42.706;23.160;2022-07-01T02:42:43;94222.50;;;18.04;100.00
11049;BME280;5577;42.706;23.160;2022-07-01T02:45:27;94224.78;;;18.02;100.00
11049;BME280;5577;42.706;23.160;2022-07-01T02:48:11;94205.38;;;17.84;100.00
11049;BME280;5577;42.706;23.160;2022-07-01T02:50:55;94232.88;;;17.99;100.00
11049;BME280;5577;42.706;23.160;2022-07-01T02:53:39;94230.56;;;17.97;100.00
11049;BME280;5577;42.706;23.160;2022-07-01T02:56:23;94241.66;;;17.99;100.00
11049;BME280;5577;42.706;23.160;2022-07-01T02:59:07;94234.75;;;18.05;100.00
11049;BME280;5577;42.706;23.160;2022-07-01T03:01:51;94241.25;;;18.04;100.00
11049;BME280;5577;42.706;23.160;2022-07-01T03:04:35;94236.69;;;17.98;100.00
11049;BME280;5577;42.706;23.160;2022-07-01T03:07:19;94239.72;;;18.07;100.00
11049;BME280;5577;42.706;23.160;2022-07-01T03:10:05;94249.28;;;18.04;100.00
11049;BME280;5577;42.706;23.160;2022-07-01T03:12:49;94263.47;;;18.05;100.00
11049;BME280;5577;42.706;23.160;2022-07-01T03:15:33;94253.09;;;18.07;100.00
11049;BME280;5577;42.706;23.160;2022-07-01T03:18:17;94255.78;;;18.07;100.00
11049;BME280;5577;42.706;23.160;2022-07-01T03:21:01;94256.16;;;18.09;100.00
11049;BME280;5577;42.706;23.160;2022-07-01T03:23:45;94259.22;;;18.04;100.00
11049;BME280;5577;42.706;23.160;2022-07-01T03:26:29;94250.78;;;18.12;100.00
11049;BME280;5577;42.706;23.160;2022-07-01T03:29:13;94253.81;;;18.18;100.00
11049;BME280;5577;42.706;23.160;2022-07-01T03:31:57;94243.47;;;18.16;100.00
11049;BME280;5577;42.706;23.160;2022-07-01T03:34:45;94248.03;;;18.30;100.00
11049;BME280;5577;42.706;23.160;2022-07-01T03:37:29;94256.84;;;18.27;100.00
11049;BME280;5577;42.706;23.160;2022-07-01T03:40:13;94253.38;;;18.37;100.00
11049;BME280;5577;42.706;23.160;2022-07-01T03:42:57;94254.84;;;18.48;100.00
11049;BME280;5577;42.706;23.160;2022-07-01T03:45:41;94256.69;;;18.58;100.00
11049;BME280;5577;42.706;23.160;2022-07-01T03:48:26;94257.78;;;18.68;100.00
11049;BME280;5577;42.706;23.160;2022-07-01T03:51:10;94220.69;;;18.56;100.00
11049;BME280;5577;42.706;23.160;2022-07-01T03:53:54;94253.41;;;18.91;100.00
11049;BME280;5577;42.706;23.160;2022-07-01T03:57:08;94274.00;;;19.05;100.00
11049;BME280;5577;42.706;23.160;2022-07-01T03:59:52;94256.66;;;19.16;100.00
11049;BME280;5577;42.706;23.160;2022-07-01T04:02:36;94259.63;;;19.32;100.00
11049;BME280;5577;42.706;23.160;2022-07-01T04:05:20;94272.56;;;19.41;100.00
11049;BME280;5577;42.706;23.160;2022-07-01T04:08:07;94264.44;;;19.48;100.00
11049;BME280;5577;42.706;23.160;2022-07-01T04:10:55;94253.16;;;19.63;100.00
11049;BME280;5577;42.706;23.160;2022-07-01T04:13:40;94262.31;;;19.69;100.00
11049;BME280;5577;42.706;23.160;2022-07-01T04:16:24;94265.94;;;19.90;100.00
11049;BME280;5577;42.706;23.160;2022-07-01T04:19:10;94264.69;;;19.98;100.00
11049;BME280;5577;42.706;23.160;2022-07-01T04:21:54;94261.16;;;20.04;100.00
11049;BME280;5577;42.706;23.160;2022-07-01T04:24:57;94269.41;;;20.24;100.00
11049;BME280;5577;42.706;23.160;2022-07-01T04:27:41;94274.97;;;20.40;100.00
11049;BME280;5577;42.706;23.160;2022-07-01T04:30:25;94265.53;;;20.55;100.00
11049;BME280;5577;42.706;23.160;2022-07-01T04:33:09;94272.78;;;20.61;100.00
11049;BME280;5577;42.706;23.160;2022-07-01T04:35:54;94267.28;;;20.68;100.00
11049;BME280;5577;42.706;23.160;2022-07-01T04:38:38;94266.41;;;20.75;100.00
11049;BME280;5577;42.706;23.160;2022-07-01T04:41:22;94268.22;;;20.81;100.00
11049;BME280;5577;42.706;23.160;2022-07-01T04:44:26;94265.03;;;20.90;100.00
11049;BME280;5577;42.706;23.160;2022-07-01T04:47:10;94278.41;;;20.97;100.00
11049;BME280;5577;42.706;23.160;2022-07-01T04:49:54;94275.09;;;21.12;100.00
11049;BME280;5577;42.706;23.160;2022-07-01T04:52:38;94277.53;;;21.30;100.00
11049;BME280;5577;42.706;23.160;2022-07-01T04:55:22;94273.78;;;21.47;100.00
11049;BME280;5577;42.706;23.160;2022-07-01T04:58:06;94262.13;;;21.53;100.00
11049;BME280;5577;42.706;23.160;2022-07-01T05:00:51;94269.84;;;21.74;100.00
11049;BME280;5577;42.706;23.160;2022-07-01T05:03:36;94269.31;;;21.83;100.00
11049;BME280;5577;42.706;23.160;2022-07-01T05:06:20;94266.22;;;21.84;100.00
11049;BME280;5577;42.706;23.160;2022-07-01T05:09:04;94265.09;;;21.82;100.00
11049;BME280;5577;42.706;23.160;2022-07-01T05:11:48;94270.41;;;21.85;100.00
11049;BME280;5577;42.706;23.160;2022-07-01T05:14:32;94270.97;;;21.96;100.00
11049;BME280;5577;42.706;23.160;2022-07-01T05:17:18;94252.25;;;22.09;100.00
11049;BME280;5577;42.706;23.160;2022-07-01T05:20:02;94263.66;;;22.16;100.00
11049;BME280;5577;42.706;23.160;2022-07-01T05:23:05;94260.88;;;22.20;100.00
11049;BME280;5577;42.706;23.160;2022-07-01T05:25:49;94269.75;;;22.20;100.00
11049;BME280;5577;42.706;23.160;2022-07-01T05:28:33;94275.00;;;22.27;100.00
11049;BME280;5577;42.706;23.160;2022-07-01T05:31:16;94274.78;;;22.38;100.00
11049;BME280;5577;42.706;23.160;2022-07-01T05:34:00;94270.75;;;22.46;100.00
11049;BME280;5577;42.706;23.160;2022-07-01T05:36:44;94272.09;;;22.58;100.00
11049;BME280;5577;42.706;23.160;2022-07-01T05:39:28;94276.31;;;22.75;100.00
11049;BME280;5577;42.706;23.160;2022-07-01T05:42:12;94263.84;;;22.81;100.00
11049;BME280;5577;42.706;23.160;2022-07-01T05:44:56;94263.69;;;22.88;100.00
11049;BME280;5577;42.706;23.160;2022-07-01T05:47:39;94272.25;;;23.02;100.00
11049;BME280;5577;42.706;23.160;2022-07-01T05:50:24;94273.19;;;23.12;100.00
11049;BME280;5577;42.706;23.160;2022-07-01T05:53:09;94267.00;;;23.11;100.00
11049;BME280;5577;42.706;23.160;2022-07-01T05:55:53;94273.44;;;23.17;100.00
11049;BME280;5577;42.706;23.160;2022-07-01T05:58:37;94274.69;;;23.13;100.00
11049;BME280;5577;42.706;23.160;2022-07-01T06:01:21;94250.97;;;23.04;100.00
11049;BME280;5577;42.706;23.160;2022-07-01T06:04:05;94269.34;;;23.29;100.00
11049;BME280;5577;42.706;23.160;2022-07-01T06:06:49;94276.50;;;23.35;100.00
11049;BME280;5577;42.706;23.160;2022-07-01T06:09:33;94268.97;;;23.59;100.00
11049;BME280;5577;42.706;23.160;2022-07-01T06:12:17;94278.66;;;23.72;100.00
11049;BME280;5577;42.706;23.160;2022-07-01T06:15:01;94273.16;;;23.76;100.00
11049;BME280;5577;42.706;23.160;2022-07-01T06:17:45;94271.53;;;23.94;100.00
11049;BME280;5577;42.706;23.160;2022-07-01T06:20:29;94276.75;;;24.01;100.00
11049;BME280;5577;42.706;23.160;2022-07-01T06:23:13;94274.72;;;24.05;100.00
11049;BME280;5577;42.706;23.160;2022-07-01T06:25:57;94274.09;;;24.14;100.00
11049;BME280;5577;42.706;23.160;2022-07-01T06:28:42;94286.34;;;24.18;100.00
11049;BME280;5577;42.706;23.160;2022-07-01T06:31:25;94285.50;;;24.21;100.00
11049;BME280;5577;42.706;23.160;2022-07-01T06:34:09;94288.50;;;24.23;100.00
11049;BME280;5577;42.706;23.160;2022-07-01T06:36:53;94279.13;;;24.28;100.00
11049;BME280;5577;42.706;23.160;2022-07-01T06:39:37;94279.59;;;24.39;100.00
11049;BME280;5577;42.706;23.160;2022-07-01T06:42:22;94274.00;;;24.58;100.00
11049;BME280;5577;42.706;23.160;2022-07-01T06:45:07;94270.59;;;24.70;100.00
11049;BME280;5577;42.706;23.160;2022-07-01T06:47:51;94276.31;;;24.85;100.00
11049;BME280;5577;42.706;23.160;2022-07-01T06:50:35;94278.38;;;24.93;100.00
11049;BME280;5577;42.706;23.160;2022-07-01T06:53:19;94277.09;;;25.11;100.00
11049;BME280;5577;42.706;23.160;2022-07-01T06:56:03;94272.22;;;25.06;100.00
11049;BME280;5577;42.706;23.160;2022-07-01T06:58:47;94284.56;;;25.07;100.00
11049;BME280;5577;42.706;23.160;2022-07-01T07:01:31;94271.38;;;25.09;100.00
11049;BME280;5577;42.706;23.160;2022-07-01T07:04:15;94274.59;;;25.03;100.00
11049;BME280;5577;42.706;23.160;2022-07-01T07:07:01;94280.00;;;25.03;100.00
11049;BME280;5577;42.706;23.160;2022-07-01T07:09:45;94275.88;;;25.24;100.00
11049;BME280;5577;42.706;23.160;2022-07-01T07:12:29;94288.03;;;25.45;100.00
11049;BME280;5577;42.706;23.160;2022-07-01T07:15:13;94287.59;;;25.59;100.00
11049;BME280;5577;42.706;23.160;2022-07-01T07:17:56;94286.81;;;25.58;100.00
11049;BME280;5577;42.706;23.160;2022-07-01T07:20:42;94280.53;;;25.61;100.00
11049;BME280;5577;42.706;23.160;2022-07-01T07:23:26;94285.59;;;25.72;100.00
11049;BME280;5577;42.706;23.160;2022-07-01T07:26:10;94289.69;;;25.76;100.00
11049;BME280;5577;42.706;23.160;2022-07-01T07:28:54;94277.00;;;25.73;100.00
11049;BME280;5577;42.706;23.160;2022-07-01T07:31:39;94248.34;;;25.51;100.00
11049;BME280;5577;42.706;23.160;2022-07-01T07:34:23;94289.22;;;25.56;100.00
11049;BME280;5577;42.706;23.160;2022-07-01T07:37:07;94290.56;;;25.73;100.00
11049;BME280;5577;42.706;23.160;2022-07-01T07:39:51;94281.75;;;25.82;100.00
11049;BME280;5577;42.706;23.160;2022-07-01T07:42:36;94289.44;;;25.96;100.00
11049;BME280;5577;42.706;23.160;2022-07-01T07:45:20;94280.78;;;25.88;100.00
11049;BME280;5577;42.706;23.160;2022-07-01T07:48:05;94285.63;;;26.06;100.00
11049;BME280;5577;42.706;23.160;2022-07-01T07:50:49;94291.38;;;26.08;100.00
11049;BME280;5577;42.706;23.160;2022-07-01T07:53:33;94281.50;;;26.01;100.00
11049;BME280;5577;42.706;23.160;2022-07-01T07:56:17;94274.03;;;26.05;100.00
11049;BME280;5577;42.706;23.160;2022-07-01T07:59:02;94241.56;;;26.02;100.00
11049;BME280;5577;42.706;23.160;2022-07-01T08:01:46;94288.59;;;26.42;100.00
11049;BME280;5577;42.706;23.160;2022-07-01T08:04:30;94280.25;;;26.58;100.00
11049;BME280;5577;42.706;23.160;2022-07-01T08:07:14;94273.38;;;26.66;100.00
11049;BME280;5577;42.706;23.160;2022-07-01T08:09:58;94279.13;;;26.89;100.00
11049;BME280;5577;42.706;23.160;2022-07-01T08:12:42;94283.00;;;26.88;100.00
11049;BME280;5577;42.706;23.160;2022-07-01T08:15:26;94267.47;;;26.89;100.00
11049;BME280;5577;42.706;23.160;2022-07-01T08:18:10;94273.84;;;26.95;100.00
11049;BME280;5577;42.706;23.160;2022-07-01T08:20:54;94259.28;;;27.19;100.00
11049;BME280;5577;42.706;23.160;2022-07-01T08:23:38;94254.25;;;27.39;100.00
11049;BME280;5577;42.706;23.160;2022-07-01T08:26:22;94256.53;;;27.50;100.00
11049;BME280;5577;42.706;23.160;2022-07-01T08:29:06;94252.47;;;27.54;100.00
11049;BME280;5577;42.706;23.160;2022-07-01T08:31:50;94261.22;;;27.49;100.00
11049;BME280;5577;42.706;23.160;2022-07-01T08:34:34;94250.78;;;27.57;100.00
11049;BME280;5577;42.706;23.160;2022-07-01T08:37:19;94254.13;;;27.61;100.00
11049;BME280;5577;42.706;23.160;2022-07-01T08:40:03;94243.59;;;27.99;100.00
11049;BME280;5577;42.706;23.160;2022-07-01T08:42:47;94251.78;;;28.08;100.00
11049;BME280;5577;42.706;23.160;2022-07-01T08:45:33;94251.31;;;28.10;99.71
11049;BME280;5577;42.706;23.160;2022-07-01T08:48:18;94230.91;;;27.96;97.69
11049;BME280;5577;42.706;23.160;2022-07-01T08:51:02;94254.31;;;28.30;99.04
11049;BME280;5577;42.706;23.160;2022-07-01T08:53:48;94261.56;;;28.69;99.09
11049;BME280;5577;42.706;23.160;2022-07-01T08:56:32;94253.47;;;28.92;93.26
11049;BME280;5577;42.706;23.160;2022-07-01T08:59:26;94261.19;;;28.85;89.71
11049;BME280;5577;42.706;23.160;2022-07-01T09:02:10;94265.09;;;28.93;93.14
11049;BME280;5577;42.706;23.160;2022-07-01T09:05:06;94257.53;;;28.97;85.31
11049;BME280;5577;42.706;23.160;2022-07-01T09:10:41;94254.03;;;29.38;89.80
11049;BME280;5577;42.706;23.160;2022-07-01T09:13:25;94264.47;;;29.72;81.63
11049;BME280;5577;42.706;23.160;2022-07-01T09:16:14;94249.38;;;29.62;83.75
11049;BME280;5577;42.706;23.160;2022-07-01T09:19:00;94261.47;;;29.93;80.18
11049;BME280;5577;42.706;23.160;2022-07-01T09:21:52;94264.00;;;29.97;67.91
11049;BME280;5577;42.706;23.160;2022-07-01T09:24:41;94263.63;;;30.04;72.63
11049;BME280;5577;42.706;23.160;2022-07-01T09:27:26;94241.91;;;30.09;73.61
11049;BME280;5577;42.706;23.160;2022-07-01T09:30:10;94270.44;;;30.08;65.94
11049;BME280;5577;42.706;23.160;2022-07-01T09:35:53;94267.03;;;29.99;61.70
11049;BME280;5577;42.706;23.160;2022-07-01T09:38:45;94267.34;;;30.16;58.36
11049;BME280;5577;42.706;23.160;2022-07-01T09:41:37;94255.75;;;30.59;62.56
11049;BME280;5577;42.706;23.160;2022-07-01T09:44:21;94213.53;;;30.45;62.92
11049;BME280;5577;42.706;23.160;2022-07-01T09:47:06;94248.06;;;30.72;63.77
11049;BME280;5577;42.706;23.160;2022-07-01T09:49:51;94242.56;;;30.57;61.45
11049;BME280;5577;42.706;23.160;2022-07-01T09:52:36;94247.53;;;30.44;58.47
11049;BME280;5577;42.706;23.160;2022-07-01T09:55:21;94241.66;;;30.75;59.60
11049;BME280;5577;42.706;23.160;2022-07-01T09:58:06;94240.97;;;30.94;57.60
11049;BME280;5577;42.706;23.160;2022-07-01T10:00:52;94243.00;;;31.14;57.08
11049;BME280;5577;42.706;23.160;2022-07-01T10:03:38;94236.66;;;31.37;59.31
11049;BME280;5577;42.706;23.160;2022-07-01T10:07:36;94236.69;;;31.57;63.98
11049;BME280;5577;42.706;23.160;2022-07-01T10:12:53;94232.63;;;31.52;53.29
11049;BME280;5577;42.706;23.160;2022-07-01T10:15:40;94234.41;;;31.21;49.32
11049;BME280;5577;42.706;23.160;2022-07-01T10:18:27;94227.72;;;31.36;49.42
11049;BME280;5577;42.706;23.160;2022-07-01T10:21:28;94223.47;;;31.55;53.17
11049;BME280;5577;42.706;23.160;2022-07-01T10:24:14;94226.47;;;31.37;50.63
11049;BME280;5577;42.706;23.160;2022-07-01T10:27:00;94226.91;;;31.50;50.81
11049;BME280;5577;42.706;23.160;2022-07-01T10:29:44;94221.69;;;31.52;48.25
11049;BME280;5577;42.706;23.160;2022-07-01T10:32:28;94234.16;;;31.73;46.98
11049;BME280;5577;42.706;23.160;2022-07-01T10:35:13;94238.72;;;31.96;47.06
11049;BME280;5577;42.706;23.160;2022-07-01T10:38:01;94211.03;;;31.74;48.68
11049;BME280;5577;42.706;23.160;2022-07-01T10:40:47;94212.69;;;31.46;48.14
11049;BME280;5577;42.706;23.160;2022-07-01T10:43:33;94211.94;;;31.31;48.79
11049;BME280;5577;42.706;23.160;2022-07-01T10:52:26;94192.53;;;32.09;48.45
11049;BME280;5577;42.706;23.160;2022-07-01T10:55:10;94194.47;;;32.03;46.04
11049;BME280;5577;42.706;23.160;2022-07-01T10:57:54;94192.69;;;32.00;46.66
11049;BME280;5577;42.706;23.160;2022-07-01T11:00:43;94201.41;;;31.79;44.72
11049;BME280;5577;42.706;23.160;2022-07-01T11:03:27;94189.22;;;32.25;44.25
11049;BME280;5577;42.706;23.160;2022-07-01T11:06:11;94194.75;;;32.31;42.45
11049;BME280;5577;42.706;23.160;2022-07-01T11:08:55;94193.13;;;32.70;41.78
11049;BME280;5577;42.706;23.160;2022-07-01T11:11:39;94192.59;;;33.70;41.89
11049;BME280;5577;42.706;23.160;2022-07-01T11:14:23;94187.59;;;34.44;38.63
11049;BME280;5577;42.706;23.160;2022-07-01T11:17:08;94157.13;;;35.03;39.46
11049;BME280;5577;42.706;23.160;2022-07-01T11:19:55;94153.50;;;35.57;36.63
11049;BME280;5577;42.706;23.160;2022-07-01T11:22:42;94183.09;;;36.14;36.31
11049;BME280;5577;42.706;23.160;2022-07-01T11:25:26;94181.63;;;35.34;35.60
11049;BME280;5577;42.706;23.160;2022-07-01T11:28:11;94178.78;;;34.18;35.31
11049;BME280;5577;42.706;23.160;2022-07-01T11:31:00;94175.25;;;33.42;37.82
11049;BME280;5577;42.706;23.160;2022-07-01T11:33:48;94189.38;;;33.30;36.37
11049;BME280;5577;42.706;23.160;2022-07-01T11:36:33;94182.97;;;33.91;38.30
11049;BME280;5577;42.706;23.160;2022-07-01T11:39:36;94172.56;;;34.23;37.01
11049;BME280;5577;42.706;23.160;2022-07-01T11:42:20;94169.28;;;34.08;35.92
11049;BME280;5577;42.706;23.160;2022-07-01T11:45:05;94164.78;;;34.05;37.02
11049;BME280;5577;42.706;23.160;2022-07-01T11:47:50;94167.31;;;34.19;34.23
11049;BME280;5577;42.706;23.160;2022-07-01T11:50:34;94173.31;;;33.54;35.58
11049;BME280;5577;42.706;23.160;2022-07-01T11:53:18;94151.59;;;33.61;35.99
11049;BME280;5577;42.706;23.160;2022-07-01T11:56:03;94163.06;;;33.54;35.49
11049;BME280;5577;42.706;23.160;2022-07-01T11:58:49;94155.66;;;33.29;35.69
11049;BME280;5577;42.706;23.160;2022-07-01T12:01:35;94147.13;;;33.69;34.90
11049;BME280;5577;42.706;23.160;2022-07-01T12:04:20;94136.41;;;33.66;33.73
11049;BME280;5577;42.706;23.160;2022-07-01T12:07:05;94135.16;;;33.72;34.30
11049;BME280;5577;42.706;23.160;2022-07-01T12:09:49;94136.78;;;33.95;34.34
11049;BME280;5577;42.706;23.160;2022-07-01T12:12:33;94075.00;;;33.58;33.78
11049;BME280;5577;42.706;23.160;2022-07-01T12:15:17;94123.25;;;33.33;31.88
11049;BME280;5577;42.706;23.160;2022-07-01T12:18:05;94135.84;;;33.51;31.46
11049;BME280;5577;42.706;23.160;2022-07-01T12:20:53;94131.50;;;33.86;32.45
11049;BME280;5577;42.706;23.160;2022-07-01T12:23:37;94137.06;;;34.03;33.80
11049;BME280;5577;42.706;23.160;2022-07-01T12:26:21;94125.38;;;34.46;34.43
11049;BME280;5577;42.706;23.160;2022-07-01T12:29:05;94125.91;;;34.83;34.53
11049;BME280;5577;42.706;23.160;2022-07-01T12:32:00;94053.06;;;33.80;32.46
11049;BME280;5577;42.706;23.160;2022-07-01T12:34:56;94134.69;;;33.74;32.65
11049;BME280;5577;42.706;23.160;2022-07-01T12:37:41;94132.69;;;33.69;32.37
11049;BME280;5577;42.706;23.160;2022-07-01T12:40:26;94123.75;;;33.85;33.74
11049;BME280;5577;42.706;23.160;2022-07-01T12:43:31;94121.81;;;34.18;33.60
11049;BME280;5577;42.706;23.160;2022-07-01T12:46:29;94113.97;;;33.78;34.62
11049;BME280;5577;42.706;23.160;2022-07-01T12:49:22;94111.69;;;33.66;33.20
11049;BME280;5577;42.706;23.160;2022-07-01T12:52:28;94112.03;;;33.90;33.95
11049;BME280;5577;42.706;23.160;2022-07-01T12:55:17;94106.13;;;34.41;33.56
11049;BME280;5577;42.706;23.160;2022-07-01T12:58:04;94109.63;;;34.63;31.96
11049;BME280;5577;42.706;23.160;2022-07-01T13:00:54;94103.59;;;34.21;31.36
11049;BME280;5577;42.706;23.160;2022-07-01T13:03:40;94103.06;;;33.95;31.38
11049;BME280;5577;42.706;23.160;2022-07-01T13:06:24;94107.56;;;34.03;31.01
11049;BME280;5577;42.706;23.160;2022-07-01T13:09:08;94099.91;;;34.35;32.19
11049;BME280;5577;42.706;23.160;2022-07-01T13:11:52;94090.38;;;34.19;32.11
11049;BME280;5577;42.706;23.160;2022-07-01T13:14:36;94098.84;;;34.16;32.16
11049;BME280;5577;42.706;23.160;2022-07-01T13:17:19;94102.00;;;33.76;30.69
11049;BME280;5577;42.706;23.160;2022-07-01T13:20:06;94105.66;;;33.51;30.80
11049;BME280;5577;42.706;23.160;2022-07-01T13:22:51;94095.63;;;33.37;30.88
11049;BME280;5577;42.706;23.160;2022-07-01T13:25:35;94098.41;;;33.48;32.58
11049;BME280;5577;42.706;23.160;2022-07-01T13:28:20;94082.94;;;33.50;32.43
11049;BME280;5577;42.706;23.160;2022-07-01T13:31:04;94087.66;;;33.50;33.68
11049;BME280;5577;42.706;23.160;2022-07-01T13:33:47;94098.00;;;33.18;32.30
11049;BME280;5577;42.706;23.160;2022-07-01T13:36:31;94090.16;;;32.95;33.95
11049;BME280;5577;42.706;23.160;2022-07-01T13:39:15;94087.09;;;32.87;35.09
11049;BME280;5577;42.706;23.160;2022-07-01T13:41:59;94092.50;;;33.18;33.99
11049;BME280;5577;42.706;23.160;2022-07-01T13:44:43;94086.72;;;33.11;33.23
11049;BME280;5577;42.706;23.160;2022-07-01T13:47:28;94085.69;;;33.03;38.06
11049;BME280;5577;42.706;23.160;2022-07-01T13:50:12;94079.63;;;32.88;39.39
11049;BME280;5577;42.706;23.160;2022-07-01T13:52:56;94078.81;;;32.82;38.82
11049;BME280;5577;42.706;23.160;2022-07-01T13:55:40;94086.69;;;32.06;37.00
11049;BME280;5577;42.706;23.160;2022-07-01T13:58:24;94068.25;;;31.56;39.49
11049;BME280;5577;42.706;23.160;2022-07-01T14:01:08;94087.94;;;31.40;39.56
11049;BME280;5577;42.706;23.160;2022-07-01T14:03:53;94086.81;;;31.26;40.70
11049;BME280;5577;42.706;23.160;2022-07-01T14:06:37;94063.59;;;30.82;40.98
11049;BME280;5577;42.706;23.160;2022-07-01T14:09:21;94087.88;;;30.94;42.23
11049;BME280;5577;42.706;23.160;2022-07-01T14:12:06;94088.47;;;31.04;44.75
11049;BME280;5577;42.706;23.160;2022-07-01T14:14:50;94086.56;;;31.10;44.94
11049;BME280;5577;42.706;23.160;2022-07-01T14:17:35;94056.56;;;30.95;44.67
11049;BME280;5577;42.706;23.160;2022-07-01T14:20:20;94080.13;;;31.13;43.06
11049;BME280;5577;42.706;23.160;2022-07-01T14:23:04;94084.09;;;31.12;42.70
11049;BME280;5577;42.706;23.160;2022-07-01T14:25:48;94066.31;;;31.02;43.67
11049;BME280;5577;42.706;23.160;2022-07-01T14:28:32;94072.09;;;31.24;45.97
11049;BME280;5577;42.706;23.160;2022-07-01T14:31:16;94066.19;;;31.51;45.17
11049;BME280;5577;42.706;23.160;2022-07-01T14:34:00;94065.28;;;31.59;46.10
11049;BME280;5577;42.706;23.160;2022-07-01T14:36:44;94067.84;;;31.43;45.66
11049;BME280;5577;42.706;23.160;2022-07-01T14:39:28;94075.66;;;31.30;46.53
11049;BME280;5577;42.706;23.160;2022-07-01T14:42:12;94070.72;;;31.34;48.94
11049;BME280;5577;42.706;23.160;2022-07-01T14:44:56;94076.69;;;31.32;47.28